Airport View

Enter AWOS ICAO identifier for current METAR.

ex. KFNL

KRCM 200310Z AUTO 14009KT 10SM SCT065 OVC080 13/02 A3009 RMK AO2

20 Mar 2019 02:51

Frequency: 119.575

Phone: 660-422-7010

Other Area AWOS: KSZL - KGLY - KLRY - KLXT

TAF KSZL 191900Z 1919/2101 12012G18KT 9999 SCT080 BKN100 621002 QNH3020INS BECMG 2003/2004 18009KT 9000 -SHRA SCT020 OVC050 620505 QNH3012INS BECMG 2005/2006 27008KT 8000 -RA OVC008 620089 QNH3009INS BECMG 2013/2014 27009KT 9999 NSW BKN012 620303 QNH3014INS BECMG 2021/2022 27009KT 9999 SCT030 BKN140 621402 QNH3006INS TX14/1922Z TN06/2013Z